createdAt,value
2022-11-29T00:00:52.822Z,31.20
2022-11-29T00:01:52.865Z,30.60
2022-11-29T00:02:52.864Z,32.00
2022-11-29T00:03:52.706Z,32.20
2022-11-29T00:04:52.657Z,31.40
2022-11-29T00:05:52.611Z,31.70
2022-11-29T00:06:52.587Z,31.80
2022-11-29T00:07:52.548Z,32.90
2022-11-29T00:08:52.503Z,32.00
2022-11-29T00:09:52.437Z,33.50
2022-11-29T00:10:53.103Z,32.30
2022-11-29T00:11:52.352Z,32.30
2022-11-29T00:12:52.312Z,32.60
2022-11-29T00:13:52.271Z,32.80
2022-11-29T00:14:52.241Z,33.20
2022-11-29T00:15:52.189Z,33.50
2022-11-29T00:16:52.193Z,33.70
2022-11-29T00:17:52.109Z,33.00
2022-11-29T00:18:52.060Z,33.20
2022-11-29T00:19:52.037Z,31.90
2022-11-29T00:20:51.970Z,33.10
2022-11-29T00:21:52.608Z,34.30
2022-11-29T00:22:51.894Z,33.80
2022-11-29T00:23:51.860Z,34.90
2022-11-29T00:24:51.812Z,34.40
2022-11-29T00:25:51.789Z,34.20
2022-11-29T00:26:51.724Z,35.80
2022-11-29T00:27:51.688Z,36.00
2022-11-29T00:28:51.639Z,36.50
2022-11-29T00:29:51.601Z,38.00
2022-11-29T00:30:51.597Z,37.30
2022-11-29T00:31:51.520Z,38.10
2022-11-29T00:32:51.487Z,38.00
2022-11-29T00:33:51.462Z,37.60
2022-11-29T00:34:51.408Z,38.40
2022-11-29T00:35:51.388Z,39.40
2022-11-29T00:36:51.321Z,38.40
2022-11-29T00:37:51.285Z,39.50
2022-11-29T00:38:51.228Z,40.50
2022-11-29T00:39:51.203Z,39.90
2022-11-29T00:40:51.172Z,40.90
2022-11-29T00:41:51.105Z,40.30
2022-11-29T00:42:51.078Z,40.10
2022-11-29T00:43:51.020Z,40.80
2022-11-29T00:44:50.996Z,40.50
2022-11-29T00:45:51.016Z,42.10
2022-11-29T00:46:50.887Z,40.50
2022-11-29T00:47:50.864Z,40.20
2022-11-29T00:48:50.810Z,40.80
2022-11-29T00:49:50.772Z,41.00
2022-11-29T00:50:50.727Z,39.70
2022-11-29T00:51:50.721Z,40.90
2022-11-29T00:52:50.640Z,40.20
2022-11-29T00:53:50.605Z,40.70
2022-11-29T00:54:50.565Z,39.50
2022-11-29T00:55:50.518Z,41.70
2022-11-29T00:56:50.506Z,41.00
2022-11-29T00:57:50.455Z,40.30
2022-11-29T00:58:50.399Z,41.70
2022-11-29T00:59:50.352Z,41.00
2022-11-29T01:00:50.299Z,43.00
2022-11-29T01:01:50.341Z,43.30
2022-11-29T01:02:50.273Z,42.80
2022-11-29T01:03:50.180Z,42.10
2022-11-29T01:04:50.131Z,42.40
2022-11-29T01:05:50.129Z,42.50
2022-11-29T01:06:50.054Z,42.10
2022-11-29T01:07:50.039Z,41.60
2022-11-29T01:08:49.986Z,41.20
2022-11-29T01:09:49.937Z,43.80
2022-11-29T01:10:49.898Z,41.80
2022-11-29T01:11:49.852Z,44.30
2022-11-29T01:12:49.806Z,43.60
2022-11-29T01:13:49.766Z,42.50
2022-11-29T01:14:49.732Z,43.30
2022-11-29T01:15:49.677Z,44.20
2022-11-29T01:16:49.680Z,44.60
2022-11-29T01:17:49.599Z,45.00
2022-11-29T01:18:49.560Z,44.30
2022-11-29T01:19:51.155Z,45.40
2022-11-29T01:20:49.465Z,44.60
2022-11-29T01:21:49.424Z,46.80
2022-11-29T01:22:49.383Z,45.40
2022-11-29T01:23:49.345Z,46.00
2022-11-29T01:24:49.310Z,46.30
2022-11-29T01:25:49.272Z,47.10
2022-11-29T01:29:02.893Z,46.80
2022-11-29T01:30:02.832Z,47.30
2022-11-29T01:31:02.883Z,48.20
2022-11-29T01:32:02.752Z,47.20
2022-11-29T01:33:02.709Z,47.10
2022-11-29T01:34:02.658Z,46.90
2022-11-29T01:35:02.952Z,45.90
2022-11-29T01:36:02.580Z,47.20
2022-11-29T01:37:02.543Z,45.80
2022-11-29T01:38:02.520Z,46.90
2022-11-29T01:39:02.463Z,45.70
2022-11-29T01:40:02.424Z,46.50
2022-11-29T01:41:02.395Z,46.30
2022-11-29T01:42:02.360Z,45.40
2022-11-29T01:43:09.852Z,47.10
2022-11-29T01:44:05.833Z,47.00
2022-11-29T01:45:08.824Z,47.50
2022-11-29T01:46:03.855Z,48.30
2022-11-29T01:47:05.865Z,47.70
2022-11-29T01:48:09.336Z,48.10
2022-11-29T01:49:06.896Z,47.10
2022-11-29T01:50:05.839Z,47.40
2022-11-29T01:51:12.329Z,48.10
2022-11-29T01:52:15.823Z,47.40
2022-11-29T01:53:12.842Z,48.10
2022-11-29T01:54:03.854Z,47.60
2022-11-29T01:55:04.332Z,47.20
2022-11-29T01:56:15.399Z,48.60
2022-11-29T01:58:21.831Z,48.90
2022-11-29T02:00:05.831Z,48.60
2022-11-29T02:01:05.360Z,49.80
2022-11-29T02:02:05.374Z,49.90
2022-11-29T02:03:05.187Z,50.00
2022-11-29T02:04:03.626Z,51.10
2022-11-29T02:05:09.351Z,49.20
2022-11-29T02:06:08.332Z,49.30
2022-11-29T02:07:01.981Z,49.70
2022-11-29T02:08:01.836Z,51.80
2022-11-29T02:09:03.836Z,49.70
2022-11-29T02:10:02.842Z,51.30
2022-11-29T02:11:06.370Z,50.00
2022-11-29T02:12:01.256Z,50.20
2022-11-29T02:13:01.836Z,49.50
2022-11-29T02:14:01.067Z,50.50
2022-11-29T02:15:01.831Z,50.10
2022-11-29T02:16:02.618Z,50.50
2022-11-29T02:17:01.866Z,50.30
2022-11-29T02:18:02.356Z,49.90
2022-11-29T02:19:00.917Z,50.70
2022-11-29T02:20:01.847Z,50.10
2022-11-29T02:21:03.834Z,50.80
2022-11-29T02:22:01.461Z,51.30
2022-11-29T02:23:00.790Z,49.30
2022-11-29T02:24:01.338Z,50.00
2022-11-29T02:25:08.836Z,50.00
2022-11-29T02:26:08.347Z,51.20
2022-11-29T02:27:01.655Z,51.30
2022-11-29T02:28:02.172Z,50.20
2022-11-29T02:29:04.371Z,50.60
2022-11-29T02:30:00.840Z,48.50
2022-11-29T02:31:17.398Z,51.00
2022-11-29T02:32:03.848Z,49.20
2022-11-29T02:33:01.840Z,49.70
2022-11-29T02:34:02.356Z,49.60
2022-11-29T02:35:01.034Z,51.80
2022-11-29T02:36:01.584Z,51.50
2022-11-29T02:37:03.256Z,50.00
2022-11-29T02:38:00.178Z,51.00
2022-11-29T02:39:02.847Z,51.70
2022-11-29T02:40:00.838Z,51.40
2022-11-29T02:41:01.841Z,51.50
2022-11-29T02:42:02.036Z,47.90
2022-11-29T02:43:02.857Z,50.80
2022-11-29T02:44:00.437Z,51.70
2022-11-29T02:45:00.631Z,48.80
2022-11-29T02:46:00.377Z,51.40
2022-11-29T02:47:01.049Z,53.00
2022-11-29T02:48:00.579Z,49.50
2022-11-29T02:48:59.629Z,51.80
2022-11-29T02:49:59.624Z,52.40
2022-11-29T02:51:00.402Z,52.40
2022-11-29T02:51:59.544Z,52.80
2022-11-29T02:52:59.481Z,50.70
2022-11-29T02:53:59.980Z,52.40
2022-11-29T02:54:59.378Z,49.80
2022-11-29T02:56:00.653Z,51.50
2022-11-29T02:56:59.251Z,52.60
2022-11-29T02:57:59.186Z,50.80
2022-11-29T02:58:59.164Z,52.40
2022-11-29T02:59:59.143Z,51.50
2022-11-29T03:00:59.087Z,50.90
2022-11-29T03:01:59.845Z,51.20
2022-11-29T03:03:00.136Z,52.00
2022-11-29T03:04:00.596Z,50.00
2022-11-29T03:05:00.851Z,52.00
2022-11-29T03:05:59.061Z,50.30
2022-11-29T03:06:59.352Z,51.30
2022-11-29T03:08:00.436Z,50.60
2022-11-29T03:08:59.981Z,51.60
2022-11-29T03:09:59.848Z,51.90
2022-11-29T03:11:00.721Z,51.90
2022-11-29T03:11:58.770Z,51.70
2022-11-29T03:12:58.672Z,50.50
2022-11-29T03:13:59.350Z,51.50
2022-11-29T03:14:59.349Z,50.90
2022-11-29T03:16:00.899Z,51.20
2022-11-29T03:17:02.876Z,51.50
2022-11-29T03:18:12.359Z,52.70
2022-11-29T03:19:04.855Z,52.10
2022-11-29T03:20:06.358Z,52.30
2022-11-29T03:21:04.382Z,52.80
2022-11-29T03:22:01.863Z,52.80
2022-11-29T03:23:01.356Z,52.30
2022-11-29T03:23:59.856Z,53.70
2022-11-29T03:24:58.850Z,53.70
2022-11-29T03:26:02.852Z,52.10
2022-11-29T03:26:59.360Z,52.80
2022-11-29T03:27:58.115Z,51.40
2022-11-29T03:28:59.888Z,53.70
2022-11-29T03:29:58.601Z,53.30
2022-11-29T03:30:59.134Z,53.50
2022-11-29T03:31:58.857Z,51.70
2022-11-29T03:32:58.564Z,50.60
2022-11-29T03:34:00.355Z,53.60
2022-11-29T03:35:01.855Z,53.00
2022-11-29T03:36:04.884Z,54.30
2022-11-29T03:38:06.356Z,53.20
2022-11-29T03:40:05.874Z,52.70
2022-11-29T03:45:54.387Z,53.50
2022-11-29T03:46:54.293Z,53.20
2022-11-29T03:47:54.244Z,54.20
2022-11-29T03:48:54.187Z,52.60
2022-11-29T03:49:54.149Z,52.60
2022-11-29T03:50:54.130Z,53.70
2022-11-29T03:51:54.076Z,54.70
2022-11-29T03:52:54.022Z,52.40
2022-11-29T03:53:53.994Z,54.20
2022-11-29T03:54:53.944Z,55.70
2022-11-29T03:55:53.915Z,55.80
2022-11-29T03:56:53.853Z,55.90
2022-11-29T03:57:53.820Z,56.10
2022-11-29T03:58:53.769Z,57.70
2022-11-29T03:59:53.744Z,56.30
2022-11-29T04:00:53.684Z,59.30
2022-11-29T04:01:53.683Z,59.30
2022-11-29T04:02:53.648Z,57.40
2022-11-29T04:03:53.568Z,58.40
2022-11-29T04:04:53.559Z,58.80
2022-11-29T04:05:53.506Z,58.00
2022-11-29T04:06:53.464Z,59.60
2022-11-29T04:07:53.456Z,60.90
2022-11-29T04:08:53.353Z,60.70
2022-11-29T04:09:53.320Z,61.80
2022-11-29T04:10:53.280Z,60.70
2022-11-29T04:11:53.242Z,61.60
2022-11-29T04:12:53.187Z,65.30
2022-11-29T04:13:53.183Z,65.30
2022-11-29T04:14:53.127Z,67.30
2022-11-29T04:15:53.098Z,67.50
2022-11-29T04:16:53.032Z,65.70
2022-11-29T04:17:53.012Z,66.30
2022-11-29T04:18:52.945Z,68.10
2022-11-29T04:19:52.902Z,68.50
2022-11-29T04:20:52.855Z,66.00
2022-11-29T04:21:52.816Z,68.20
2022-11-29T04:22:52.790Z,67.00
2022-11-29T04:23:52.737Z,70.40
2022-11-29T04:24:52.689Z,68.80
2022-11-29T04:25:52.704Z,66.90
2022-11-29T04:26:52.605Z,68.30
2022-11-29T04:27:52.564Z,69.30
2022-11-29T04:28:52.537Z,69.40
2022-11-29T04:30:11.171Z,70.90
2022-11-29T04:30:59.209Z,68.00
2022-11-29T04:31:53.735Z,67.20
2022-11-29T04:32:56.168Z,69.60
2022-11-29T04:33:56.688Z,69.20
2022-11-29T04:34:55.183Z,70.40
2022-11-29T04:35:55.151Z,68.30
2022-11-29T04:36:54.173Z,69.30
2022-11-29T04:37:53.153Z,67.70
2022-11-29T04:38:52.868Z,68.80
2022-11-29T04:39:55.160Z,70.60
2022-11-29T04:40:54.196Z,68.90
2022-11-29T04:41:55.659Z,70.80
2022-11-29T04:42:54.156Z,69.50
2022-11-29T04:43:58.191Z,70.70
2022-11-29T04:44:52.738Z,69.40
2022-11-29T04:46:04.233Z,70.90
2022-11-29T04:46:56.657Z,68.60
2022-11-29T04:47:57.178Z,68.60
2022-11-29T04:48:55.176Z,67.50
2022-11-29T04:49:57.674Z,69.60
2022-11-29T04:50:57.192Z,70.50
2022-11-29T04:52:00.163Z,67.90
2022-11-29T04:52:55.176Z,69.90
2022-11-29T04:53:52.716Z,69.30
2022-11-29T04:54:53.630Z,68.70
2022-11-29T04:55:58.164Z,68.20
2022-11-29T04:56:52.437Z,69.30
2022-11-29T04:57:52.160Z,69.30
2022-11-29T04:58:53.171Z,70.00
2022-11-29T04:59:52.341Z,67.50
2022-11-29T05:00:53.178Z,65.30
2022-11-29T05:01:51.353Z,69.70
2022-11-29T05:02:51.324Z,70.60
2022-11-29T05:03:56.733Z,70.40
2022-11-29T05:04:51.675Z,68.20
2022-11-29T05:05:51.765Z,67.50
2022-11-29T05:06:55.183Z,67.30
2022-11-29T05:07:51.710Z,70.10
2022-11-29T05:08:51.882Z,67.00
2022-11-29T05:09:51.976Z,68.70
2022-11-29T05:10:52.449Z,68.10
2022-11-29T05:11:53.181Z,67.40
2022-11-29T05:12:52.163Z,67.00
2022-11-29T05:13:54.662Z,69.30
2022-11-29T05:14:50.736Z,66.70
2022-11-29T05:15:51.333Z,66.90
2022-11-29T05:16:52.162Z,64.90
2022-11-29T05:17:52.177Z,68.00
2022-11-29T05:18:50.657Z,65.70
2022-11-29T05:19:51.274Z,67.20
2022-11-29T05:20:51.183Z,66.10
2022-11-29T05:21:50.380Z,67.10
2022-11-29T05:22:50.378Z,67.10
2022-11-29T05:23:52.700Z,65.70
2022-11-29T05:24:55.667Z,66.20
2022-11-29T05:25:53.164Z,67.00
2022-11-29T05:26:52.165Z,65.90
2022-11-29T05:27:52.684Z,65.90
2022-11-29T05:28:52.666Z,66.00
2022-11-29T05:29:50.685Z,67.70
2022-11-29T05:30:50.127Z,67.30
2022-11-29T05:31:50.683Z,65.80
2022-11-29T05:32:50.845Z,63.50
2022-11-29T05:33:49.947Z,68.00
2022-11-29T05:34:50.286Z,67.50
2022-11-29T05:35:50.794Z,70.50
2022-11-29T05:36:50.668Z,66.10
2022-11-29T05:37:50.310Z,66.20
2022-11-29T05:38:50.676Z,68.90
2022-11-29T05:39:51.675Z,66.50
2022-11-29T05:40:50.675Z,67.30
2022-11-29T05:41:50.307Z,66.20
2022-11-29T05:42:49.725Z,65.10
2022-11-29T05:43:50.266Z,62.80
2022-11-29T05:44:50.173Z,65.50
2022-11-29T05:45:49.435Z,66.70
2022-11-29T05:46:50.340Z,64.80
2022-11-29T05:47:49.330Z,64.50
2022-11-29T05:48:49.270Z,62.40
2022-11-29T05:49:49.226Z,67.80
2022-11-29T05:50:49.181Z,65.00
2022-11-29T05:51:49.138Z,65.00
2022-11-29T05:52:49.118Z,63.00
2022-11-29T05:53:49.038Z,61.80
2022-11-29T05:54:48.996Z,63.00
2022-11-29T05:55:48.995Z,61.60
2022-11-29T05:56:48.943Z,61.40
2022-11-29T05:57:48.883Z,61.10
2022-11-29T05:58:48.809Z,60.90
2022-11-29T05:59:48.747Z,60.50
2022-11-29T06:00:48.801Z,58.60
2022-11-29T06:01:48.778Z,59.00
2022-11-29T06:02:48.694Z,58.60
2022-11-29T06:03:48.620Z,58.60
2022-11-29T06:04:48.542Z,59.50
2022-11-29T06:05:48.502Z,59.30
2022-11-29T06:06:48.504Z,59.60
2022-11-29T06:07:48.513Z,59.40
2022-11-29T06:08:48.380Z,58.50
2022-11-29T06:09:48.341Z,57.60
2022-11-29T06:10:48.276Z,60.00
2022-11-29T06:11:48.243Z,59.40
2022-11-29T06:12:48.204Z,57.40
2022-11-29T06:13:48.153Z,57.50
2022-11-29T06:14:48.120Z,58.60
2022-11-29T06:15:48.151Z,59.00
2022-11-29T06:16:48.050Z,58.00
2022-11-29T06:17:47.990Z,58.30
2022-11-29T06:18:47.963Z,58.00
2022-11-29T06:19:47.929Z,57.80
2022-11-29T06:20:47.884Z,58.30
2022-11-29T06:21:47.854Z,55.40
2022-11-29T06:22:47.783Z,56.10
2022-11-29T06:23:47.766Z,56.40
2022-11-29T06:24:47.852Z,56.50
2022-11-29T06:25:47.659Z,57.30
2022-11-29T06:26:47.624Z,58.10
2022-11-29T06:27:47.578Z,54.90
2022-11-29T06:28:47.552Z,57.90
2022-11-29T06:29:47.521Z,56.10
2022-11-29T06:30:47.473Z,57.30
2022-11-29T06:31:47.451Z,56.50
2022-11-29T06:32:47.358Z,55.70
2022-11-29T06:33:47.325Z,56.40
2022-11-29T06:34:47.599Z,56.00
2022-11-29T06:35:47.243Z,56.00
2022-11-29T06:36:47.227Z,57.40
2022-11-29T06:37:47.157Z,55.60
2022-11-29T06:38:47.113Z,57.20
2022-11-29T06:39:47.079Z,54.80
2022-11-29T06:40:47.041Z,56.10
2022-11-29T06:41:47.006Z,55.00
2022-11-29T06:42:46.950Z,55.60
2022-11-29T06:43:46.909Z,56.10
2022-11-29T06:44:47.224Z,54.50
2022-11-29T06:45:46.842Z,53.90
2022-11-29T06:46:46.832Z,54.90
2022-11-29T06:47:46.743Z,55.90
2022-11-29T06:48:46.696Z,53.90
2022-11-29T06:49:46.667Z,54.90
2022-11-29T06:50:46.609Z,54.00
2022-11-29T06:51:46.577Z,52.90
2022-11-29T06:52:47.321Z,55.40
2022-11-29T06:53:53.293Z,53.70
2022-11-29T06:54:46.908Z,52.90
2022-11-29T06:55:46.427Z,53.80
2022-11-29T06:56:46.412Z,53.20
2022-11-29T06:57:46.343Z,54.80
2022-11-29T06:58:46.297Z,52.50
2022-11-29T06:59:46.255Z,50.70
2022-11-29T07:00:46.225Z,52.00
2022-11-29T07:01:46.194Z,53.30
2022-11-29T07:02:46.140Z,50.80
2022-11-29T07:03:46.077Z,50.90
2022-11-29T07:04:46.575Z,51.20
2022-11-29T07:05:45.983Z,51.60
2022-11-29T07:06:48.766Z,49.90
2022-11-29T07:07:46.006Z,48.20
2022-11-29T07:08:45.862Z,48.60
2022-11-29T07:09:45.850Z,49.30
2022-11-29T07:10:45.784Z,50.10
2022-11-29T07:11:46.280Z,50.70
2022-11-29T07:12:45.697Z,47.60
2022-11-29T07:13:45.684Z,46.60
2022-11-29T07:14:54.696Z,48.10
2022-11-29T07:15:53.247Z,47.60
2022-11-29T07:16:45.533Z,47.70
2022-11-29T07:17:48.384Z,47.30
2022-11-29T07:18:48.083Z,46.90
2022-11-29T07:19:46.200Z,45.60
2022-11-29T07:20:45.368Z,46.50
2022-11-29T07:21:45.332Z,46.30
2022-11-29T07:22:45.301Z,47.20
2022-11-29T07:23:45.230Z,45.80
2022-11-29T07:24:45.460Z,46.40
2022-11-29T07:26:45.202Z,46.80
2022-11-29T07:27:45.061Z,45.00
2022-11-29T07:28:45.025Z,47.30
2022-11-29T07:29:54.303Z,48.10
2022-11-29T07:30:44.940Z,46.00
2022-11-29T07:31:44.956Z,46.40
2022-11-29T07:32:50.370Z,46.50
2022-11-29T07:33:44.811Z,47.20
2022-11-29T07:34:45.102Z,45.80
2022-11-29T07:35:44.725Z,46.40
2022-11-29T07:36:44.685Z,48.20
2022-11-29T07:37:44.655Z,49.20
2022-11-29T07:38:44.607Z,47.00
2022-11-29T07:39:44.555Z,48.20
2022-11-29T07:40:44.521Z,45.90
2022-11-29T07:41:44.477Z,45.80
2022-11-29T07:42:44.448Z,46.10
2022-11-29T07:43:44.403Z,45.00
2022-11-29T07:44:44.726Z,46.30
2022-11-29T07:45:44.307Z,45.80
2022-11-29T07:46:44.323Z,45.50
2022-11-29T07:47:44.223Z,44.80
2022-11-29T07:48:44.190Z,44.60
2022-11-29T07:49:44.159Z,44.20
2022-11-29T07:50:44.108Z,43.90
2022-11-29T07:51:44.057Z,42.90
2022-11-29T07:52:44.020Z,44.70
2022-11-29T07:53:43.989Z,43.50
2022-11-29T07:54:44.441Z,43.50
2022-11-29T07:55:43.889Z,42.90
2022-11-29T07:56:43.849Z,43.20
2022-11-29T07:57:43.820Z,42.60
2022-11-29T07:58:43.881Z,42.80
2022-11-29T07:59:43.977Z,43.50
2022-11-29T08:00:43.731Z,41.90
2022-11-29T08:01:43.695Z,43.40
2022-11-29T08:02:43.603Z,43.70
2022-11-29T08:03:43.561Z,42.10
2022-11-29T08:04:43.836Z,42.10
2022-11-29T08:05:43.476Z,41.20
2022-11-29T08:06:43.433Z,41.60
2022-11-29T08:07:43.513Z,41.80
2022-11-29T08:08:44.326Z,41.10
2022-11-29T08:09:43.611Z,41.40
2022-11-29T08:10:43.269Z,40.70
2022-11-29T08:11:46.766Z,41.00
2022-11-29T08:12:43.198Z,40.20
2022-11-29T08:13:43.143Z,40.40
2022-11-29T08:14:43.478Z,38.80
2022-11-29T08:15:43.056Z,41.40
2022-11-29T08:16:43.075Z,40.40
2022-11-29T08:17:43.901Z,40.20
2022-11-29T08:18:44.916Z,40.30
2022-11-29T08:19:42.893Z,40.80
2022-11-29T08:20:42.855Z,41.20
2022-11-29T08:21:42.808Z,41.60
2022-11-29T08:22:42.783Z,40.80
2022-11-29T08:23:42.724Z,41.00
2022-11-29T08:24:43.044Z,40.50
2022-11-29T08:25:42.645Z,41.30
2022-11-29T08:26:42.602Z,41.30
2022-11-29T08:27:42.559Z,41.10
2022-11-29T08:28:42.542Z,42.20
2022-11-29T08:29:42.474Z,42.30
2022-11-29T08:30:42.437Z,41.90
2022-11-29T08:31:42.425Z,42.80
2022-11-29T08:32:44.842Z,41.90
2022-11-29T08:33:42.309Z,42.70
2022-11-29T08:34:42.461Z,43.00
2022-11-29T08:35:42.243Z,42.70
2022-11-29T08:36:42.184Z,42.10
2022-11-29T08:37:42.152Z,40.90
2022-11-29T08:38:42.108Z,40.20
2022-11-29T08:39:42.070Z,41.70
2022-11-29T08:40:42.054Z,41.40
2022-11-29T08:41:41.977Z,41.20
2022-11-29T08:42:41.940Z,40.30
2022-11-29T08:43:41.909Z,40.00
2022-11-29T08:44:41.854Z,39.40
2022-11-29T08:45:41.847Z,40.50
2022-11-29T08:46:41.826Z,41.40
2022-11-29T08:47:41.727Z,40.60
2022-11-29T08:48:41.690Z,40.30
2022-11-29T08:49:41.657Z,39.80
2022-11-29T08:50:41.618Z,41.00
2022-11-29T08:51:41.603Z,40.30
2022-11-29T08:52:41.528Z,41.50
2022-11-29T08:53:41.485Z,43.50
2022-11-29T08:54:41.446Z,42.90
2022-11-29T08:55:41.396Z,43.20
2022-11-29T08:57:41.553Z,43.10
2022-11-29T08:58:41.276Z,44.30
2022-11-29T08:59:41.231Z,44.20
2022-11-29T09:00:41.248Z,43.60
2022-11-29T09:01:41.149Z,44.70
2022-11-29T09:02:41.157Z,44.30
2022-11-29T09:03:41.074Z,45.90
2022-11-29T09:04:41.030Z,44.80
2022-11-29T09:05:40.982Z,45.90
2022-11-29T09:06:40.946Z,46.00
2022-11-29T09:07:40.940Z,47.10
2022-11-29T09:08:40.868Z,47.10
2022-11-29T09:09:40.826Z,46.70
2022-11-29T09:10:40.793Z,46.20
2022-11-29T09:11:40.736Z,47.20
2022-11-29T09:12:40.699Z,48.10
2022-11-29T09:13:40.659Z,48.80
2022-11-29T09:14:40.613Z,49.20
2022-11-29T09:15:40.604Z,51.60
2022-11-29T09:16:40.597Z,49.50
2022-11-29T09:17:40.490Z,51.00
2022-11-29T09:18:40.462Z,50.70
2022-11-29T09:19:40.402Z,50.90
2022-11-29T09:20:40.364Z,51.20
2022-11-29T09:21:40.334Z,51.50
2022-11-29T09:22:40.280Z,50.60
2022-11-29T09:23:40.234Z,52.40
2022-11-29T09:24:40.204Z,52.30
2022-11-29T09:25:40.157Z,51.80
2022-11-29T09:26:40.143Z,50.50
2022-11-29T09:27:40.080Z,52.80
2022-11-29T09:28:40.032Z,52.40
2022-11-29T09:29:39.989Z,50.40
2022-11-29T09:30:39.953Z,49.20
2022-11-29T09:31:39.964Z,47.70
2022-11-29T09:32:39.887Z,49.90
2022-11-29T09:33:39.835Z,50.20
2022-11-29T09:34:39.798Z,49.80
2022-11-29T09:35:39.738Z,51.30
2022-11-29T09:36:39.710Z,50.60
2022-11-29T09:37:39.654Z,50.60
2022-11-29T09:38:39.622Z,49.90
2022-11-29T09:39:39.571Z,49.70
2022-11-29T09:40:39.538Z,51.10
2022-11-29T09:41:42.983Z,51.00
2022-11-29T09:42:39.488Z,51.80
2022-11-29T09:43:39.420Z,52.20
2022-11-29T09:44:39.385Z,53.00
2022-11-29T09:45:39.370Z,53.90
2022-11-29T09:46:39.291Z,54.40
2022-11-29T09:47:39.243Z,54.60
2022-11-29T09:48:39.223Z,54.60
2022-11-29T09:49:39.158Z,53.60
2022-11-29T09:50:39.131Z,54.20
2022-11-29T09:51:44.040Z,56.30
2022-11-29T09:52:39.047Z,54.30
2022-11-29T09:53:38.997Z,55.70
2022-11-29T09:54:38.968Z,55.70
2022-11-29T09:55:38.916Z,54.80
2022-11-29T09:56:38.869Z,54.90
2022-11-29T09:57:38.836Z,54.90
2022-11-29T09:58:38.788Z,55.00
2022-11-29T09:59:38.744Z,53.40
2022-11-29T10:00:38.724Z,54.70
2022-11-29T10:01:38.708Z,52.70
2022-11-29T10:02:38.666Z,52.60
2022-11-29T10:03:38.575Z,52.90
2022-11-29T10:04:38.538Z,53.30
2022-11-29T10:05:38.502Z,53.60
2022-11-29T10:06:38.471Z,54.10
2022-11-29T10:07:38.445Z,52.70
2022-11-29T10:08:38.394Z,50.50
2022-11-29T10:09:38.331Z,52.10
2022-11-29T10:10:38.292Z,50.60
2022-11-29T10:11:38.256Z,53.50
2022-11-29T10:12:38.208Z,50.80
2022-11-29T10:13:38.191Z,51.70
2022-11-29T10:14:38.128Z,52.70
2022-11-29T10:15:38.084Z,51.00
2022-11-29T10:16:38.139Z,53.30
2022-11-29T10:17:38.001Z,52.50
2022-11-29T10:18:37.961Z,53.60
2022-11-29T10:19:37.918Z,52.70
2022-11-29T10:20:41.424Z,53.50
2022-11-29T10:21:37.838Z,52.90
2022-11-29T10:22:37.809Z,51.90
2022-11-29T10:23:37.767Z,51.60
2022-11-29T10:24:37.732Z,51.70
2022-11-29T10:25:37.670Z,51.20
2022-11-29T10:26:37.632Z,52.30
2022-11-29T10:27:37.607Z,53.40
2022-11-29T10:28:37.547Z,50.30
2022-11-29T10:29:37.519Z,53.60
2022-11-29T10:30:37.508Z,52.40
2022-11-29T10:31:37.431Z,51.10
2022-11-29T10:32:37.392Z,51.70
2022-11-29T10:33:38.478Z,51.70
2022-11-29T10:34:37.303Z,52.30
2022-11-29T10:35:37.272Z,48.60
2022-11-29T10:36:37.221Z,52.20
2022-11-29T10:37:37.175Z,50.50
2022-11-29T10:38:37.138Z,48.40
2022-11-29T10:39:37.094Z,49.20
2022-11-29T10:40:37.058Z,45.10
2022-11-29T10:41:37.018Z,40.50
2022-11-29T10:42:36.972Z,40.70
2022-11-29T10:43:36.949Z,40.30
2022-11-29T10:44:36.889Z,40.50
2022-11-29T10:45:36.893Z,39.60
2022-11-29T10:46:36.810Z,37.40
2022-11-29T10:47:36.774Z,37.40
2022-11-29T10:48:36.727Z,35.70
2022-11-29T10:49:36.678Z,36.10
2022-11-29T10:50:36.641Z,36.70
2022-11-29T10:51:36.599Z,38.30
2022-11-29T10:52:36.557Z,36.00
2022-11-29T10:53:36.531Z,37.50
2022-11-29T10:54:36.475Z,38.00
2022-11-29T10:55:36.436Z,36.40
2022-11-29T10:56:36.396Z,37.10
2022-11-29T10:57:36.353Z,37.90
2022-11-29T10:58:36.319Z,37.20
2022-11-29T10:59:36.282Z,35.40
2022-11-29T11:00:36.229Z,36.30
2022-11-29T11:01:36.205Z,35.90
2022-11-29T11:02:36.152Z,36.60
2022-11-29T11:03:36.103Z,36.90
2022-11-29T11:04:36.079Z,36.20
2022-11-29T11:05:36.056Z,36.80
2022-11-29T11:06:35.985Z,36.70
2022-11-29T11:07:36.070Z,35.10
2022-11-29T11:08:35.902Z,34.70
2022-11-29T11:09:35.870Z,34.50
2022-11-29T11:10:35.850Z,36.00
2022-11-29T11:11:35.779Z,34.00
2022-11-29T11:12:35.743Z,35.80
2022-11-29T11:13:35.698Z,34.50
2022-11-29T11:14:35.667Z,34.20
2022-11-29T11:15:35.617Z,35.40
2022-11-29T11:16:37.569Z,35.10
2022-11-29T11:17:35.531Z,35.40
2022-11-29T11:18:35.507Z,35.40
2022-11-29T11:19:35.462Z,35.90
2022-11-29T11:20:35.407Z,36.70
2022-11-29T11:21:35.362Z,36.50
2022-11-29T11:22:35.336Z,36.60
2022-11-29T11:23:39.878Z,36.70
2022-11-29T11:24:35.259Z,36.70
2022-11-29T11:25:35.204Z,37.10
2022-11-29T11:26:35.163Z,37.80
2022-11-29T11:27:35.133Z,38.10
2022-11-29T11:28:35.079Z,38.20
2022-11-29T11:29:35.048Z,37.30
2022-11-29T11:30:35.081Z,37.20
2022-11-29T11:31:34.970Z,37.30
2022-11-29T11:32:34.916Z,38.10
2022-11-29T11:33:34.873Z,37.10
2022-11-29T11:34:34.842Z,36.90
2022-11-29T11:35:34.802Z,37.40
2022-11-29T11:36:34.753Z,38.40
2022-11-29T11:37:34.722Z,36.40
2022-11-29T11:38:34.672Z,38.20
2022-11-29T11:39:34.633Z,38.00
2022-11-29T11:40:34.656Z,38.00
2022-11-29T11:41:34.556Z,39.50
2022-11-29T11:42:34.506Z,40.10
2022-11-29T11:43:34.471Z,40.20
2022-11-29T11:44:49.731Z,38.90
2022-11-29T11:45:34.381Z,39.40
2022-11-29T11:46:34.384Z,39.30
2022-11-29T11:47:34.302Z,39.70
2022-11-29T11:48:34.257Z,39.70
2022-11-29T11:49:34.221Z,40.60
2022-11-29T11:50:34.179Z,40.20
2022-11-29T11:51:34.135Z,39.80
2022-11-29T11:52:39.570Z,40.40
2022-11-29T11:53:34.053Z,41.90
2022-11-29T11:54:34.009Z,42.70
2022-11-29T11:55:33.976Z,41.70
2022-11-29T11:56:33.928Z,42.20
2022-11-29T11:57:33.891Z,41.90
2022-11-29T11:58:33.860Z,42.60
2022-11-29T11:59:33.820Z,42.60
2022-11-29T12:01:01.809Z,42.70
2022-11-29T12:01:33.724Z,43.20
2022-11-29T12:02:33.767Z,41.70
2022-11-29T12:03:33.682Z,43.40
2022-11-29T12:04:33.602Z,43.70
2022-11-29T12:05:33.571Z,42.60
2022-11-29T12:06:33.531Z,41.90
2022-11-29T12:07:59.723Z,43.00
2022-11-29T12:08:33.494Z,42.50
2022-11-29T12:09:33.412Z,43.20
2022-11-29T12:10:33.351Z,43.40
2022-11-29T12:11:33.317Z,43.10
2022-11-29T12:12:33.276Z,43.40
2022-11-29T12:13:33.236Z,41.90
2022-11-29T12:14:33.199Z,43.90
2022-11-29T12:15:33.216Z,41.80
2022-11-29T12:16:33.115Z,42.90
2022-11-29T12:17:33.069Z,43.40
2022-11-29T12:18:33.026Z,42.30
2022-11-29T12:19:32.994Z,42.80
2022-11-29T12:20:32.954Z,42.00
2022-11-29T12:21:32.904Z,43.70
2022-11-29T12:22:32.856Z,42.40
2022-11-29T12:23:32.819Z,42.30
2022-11-29T12:24:32.780Z,42.10
2022-11-29T12:25:32.735Z,41.10
2022-11-29T12:26:56.434Z,40.90
2022-11-29T12:27:32.662Z,41.50
2022-11-29T12:28:32.625Z,41.80
2022-11-29T12:29:32.571Z,39.90
2022-11-29T12:30:32.527Z,40.60
2022-11-29T12:31:32.558Z,40.00
2022-11-29T12:32:32.459Z,40.80
2022-11-29T12:33:32.423Z,40.30
2022-11-29T12:34:32.363Z,40.00
2022-11-29T12:35:32.322Z,39.60
2022-11-29T12:36:32.285Z,38.20
2022-11-29T12:37:32.240Z,39.20
2022-11-29T12:38:32.238Z,38.00
2022-11-29T12:39:32.167Z,38.80
2022-11-29T12:40:32.116Z,38.50
2022-11-29T12:41:32.078Z,37.90
2022-11-29T12:42:32.034Z,38.00
2022-11-29T12:43:32.007Z,38.30
2022-11-29T12:44:31.951Z,36.70
2022-11-29T12:45:31.925Z,38.90
2022-11-29T12:46:31.905Z,38.60
2022-11-29T12:47:36.211Z,39.00
2022-11-29T12:48:31.799Z,38.80
2022-11-29T12:49:31.747Z,38.80
2022-11-29T12:50:31.701Z,37.40
2022-11-29T12:51:31.667Z,38.30
2022-11-29T12:52:31.623Z,36.90
2022-11-29T12:53:31.583Z,38.40
2022-11-29T12:54:31.551Z,37.10
2022-11-29T12:55:31.503Z,37.50
2022-11-29T12:56:31.462Z,35.50
2022-11-29T12:57:31.418Z,37.30
2022-11-29T12:58:31.379Z,36.60
2022-11-29T12:59:31.351Z,36.10
2022-11-29T13:00:31.291Z,36.00
2022-11-29T13:01:31.334Z,36.00
2022-11-29T13:02:31.421Z,36.80
2022-11-29T13:03:31.170Z,36.50
2022-11-29T13:04:31.130Z,36.00
2022-11-29T13:05:31.098Z,35.00